Time;durP1;ratioP1;P1;durP2;ratioP2;P2;SDS_P1;SDS_P2;PMS_P1;PMS_P2;Temp;Humidity;BMP_temperature;BMP_pressure;BME280_temperature;BME280_humidity;BME280_pressure;Samples;Min_cycle;Max_cycle;Signal;HPM_P1;HPM_P2
2022/08/10 00:00:22;;;;;;;2.90;2.70;;;18.10;90.20;;;18.90;55.42;98575.34;5199218;28;20703;-79
2022/08/10 00:02:58;;;;;;;3.10;2.90;;;18.00;90.30;;;18.93;55.19;98577.16;5200628;28;20248;-79
2022/08/10 00:05:31;;;;;;;3.67;2.92;;;18.00;90.30;;;18.88;55.14;98569.22;5196348;28;20205;-79
2022/08/10 00:08:26;;;;;;;3.20;3.00;;;18.00;90.30;;;18.89;55.35;98578.78;5198780;28;20199;-78
2022/08/10 00:10:59;;;;;;;3.50;3.13;;;18.00;90.60;;;18.90;56.17;98585.72;5198169;28;20198;-78
2022/08/10 00:13:33;;;;;;;3.17;2.97;;;18.00;91.40;;;18.83;56.22;98575.97;5192684;28;20755;-79
2022/08/10 00:16:07;;;;;;;2.90;2.80;;;17.90;91.50;;;18.80;56.60;98585.31;5193143;28;20211;-79
2022/08/10 00:18:40;;;;;;;3.75;3.45;;;17.90;92.10;;;18.73;56.83;98583.31;5199394;28;20225;-79
2022/08/10 00:21:13;;;;;;;3.28;3.08;;;17.80;92.30;;;18.70;57.55;98589.25;5193149;28;20211;-79
2022/08/10 00:23:48;;;;;;;3.38;3.17;;;17.80;92.80;;;18.60;58.16;98584.56;5197144;28;20237;-79
2022/08/10 00:26:21;;;;;;;3.45;3.20;;;17.70;92.70;;;18.58;57.68;98581.03;5192655;28;20735;-79
2022/08/10 00:28:54;;;;;;;3.17;2.88;;;17.60;92.70;;;18.50;57.96;98585.06;5197314;28;20688;-78
2022/08/10 00:31:27;;;;;;;3.40;3.20;;;17.60;92.70;;;18.44;57.30;98583.13;5201480;28;20640;-79
2022/08/10 00:34:01;;;;;;;3.30;3.10;;;17.50;92.50;;;18.45;57.31;98580.56;5194901;28;20222;-79
2022/08/10 00:36:34;;;;;;;3.92;3.63;;;17.60;92.80;;;18.48;58.18;98577.22;5200700;28;20240;-79
2022/08/10 00:39:09;;;;;;;3.35;3.10;;;17.60;93.00;;;18.45;58.52;98580.56;5190710;28;20229;-78
2022/08/10 00:41:48;;;;;;;3.75;3.45;;;17.60;93.20;;;18.45;58.27;98582.28;5195308;28;20207;-78
2022/08/10 00:44:42;;;;;;;3.47;3.28;;;17.50;93.40;;;18.39;58.28;98580.34;5197185;28;20613;-79
2022/08/10 00:47:16;;;;;;;3.20;3.00;;;17.50;93.20;;;18.36;58.09;98582.81;5198466;28;20206;-79
2022/08/10 00:50:10;;;;;;;4.30;3.13;;;17.50;93.20;;;18.41;58.36;98580.41;5196961;28;20508;-79
2022/08/10 00:52:44;;;;;;;3.30;3.00;;;17.50;93.40;;;18.49;57.66;98578.13;5196460;28;20327;-79
2022/08/10 00:55:19;;;;;;;3.53;3.33;;;17.50;93.10;;;18.40;57.64;98576.94;5196690;28;20257;-79
2022/08/10 00:57:53;;;;;;;3.28;3.08;;;17.50;93.00;;;18.38;57.65;98576.00;5197389;28;20272;-79
2022/08/10 01:00:28;;;;;;;3.50;3.25;;;17.50;92.80;;;18.33;58.15;98582.69;5200663;28;20206;-79
2022/08/10 01:03:01;;;;;;;3.20;2.97;;;17.50;93.00;;;18.30;58.62;98576.53;5197952;28;20238;-79
2022/08/10 01:05:40;;;;;;;3.42;3.22;;;17.40;93.40;;;18.31;58.48;98579.16;5198647;28;20685;-79
2022/08/10 01:08:31;;;;;;;3.03;2.85;;;17.40;93.70;;;18.28;58.86;98566.09;5195460;28;20198;-79
2022/08/10 01:11:11;;;;;;;3.53;3.33;;;17.40;94.00;;;18.24;58.74;98572.00;5197195;28;20202;-79
2022/08/10 01:14:13;;;;;;;3.63;3.38;;;17.30;93.80;;;18.22;59.08;98568.47;5194152;28;20285;-79
2022/08/10 01:16:54;;;;;;;3.42;3.13;;;17.30;93.80;;;18.15;58.27;98569.06;5193877;28;20217;-78
2022/08/10 01:19:54;;;;;;;3.78;3.47;;;17.30;93.50;;;18.21;58.67;98566.72;5207285;28;20202;-79
2022/08/10 01:23:03;;;;;;;3.38;3.05;;;17.30;93.80;;;18.15;58.99;98562.19;5194963;28;20203;-79
2022/08/10 01:26:02;;;;;;;3.40;3.10;;;17.30;94.10;;;18.17;59.18;98560.53;5201490;28;20205;-79
2022/08/10 01:28:58;;;;;;;3.50;3.30;;;17.20;94.40;;;18.11;59.81;98559.41;5188483;28;20266;-78
2022/08/10 01:31:39;;;;;;;3.28;2.97;;;17.20;94.80;;;18.09;59.70;98568.84;5200565;28;20632;-78
2022/08/10 01:34:20;;;;;;;3.17;2.97;;;17.20;94.80;;;17.96;60.14;98564.88;5195359;28;20229;-79
2022/08/10 01:37:05;;;;;;;3.22;3.03;;;17.10;94.80;;;17.87;60.09;98580.91;5197046;28;20206;-79
2022/08/10 01:39:43;;;;;;;3.53;3.33;;;16.90;94.90;;;17.90;60.11;98574.97;5193752;28;20226;-79
2022/08/10 01:42:20;;;;;;;3.38;3.08;;;17.00;95.20;;;17.89;60.59;98578.41;5199214;28;20203;-78
2022/08/10 01:44:56;;;;;;;3.38;3.17;;;16.90;95.10;;;17.87;60.33;98574.88;5197760;28;20195;-79
2022/08/10 01:50:33;;;;;;;3.70;3.50;;;16.90;95.40;;;17.78;60.53;98575.38;5196300;28;20272;-79
2022/08/10 01:53:34;;;;;;;3.83;3.50;;;16.90;95.20;;;17.78;60.24;98575.38;5197131;28;20286;-79
2022/08/10 01:56:16;;;;;;;3.50;3.20;;;16.90;95.40;;;17.78;60.66;98580.56;5197494;28;20681;-79
2022/08/10 01:58:56;;;;;;;3.88;3.58;;;16.90;95.70;;;17.76;60.92;98588.19;5193503;28;20230;-79
2022/08/10 02:01:35;;;;;;;3.63;3.33;;;16.90;96.10;;;17.75;62.00;98586.44;5196776;28;20233;-79
2022/08/10 02:04:13;;;;;;;3.60;3.38;;;16.80;96.30;;;17.70;61.42;98584.50;5198208;28;20218;-79
2022/08/10 02:06:51;;;;;;;3.70;3.50;;;16.80;96.30;;;17.65;61.46;98586.00;5195471;28;20210;-79
2022/08/10 02:09:28;;;;;;;3.60;3.40;;;16.70;96.10;;;17.56;61.86;98583.91;5199681;28;20199;-79
2022/08/10 02:12:06;;;;;;;3.30;3.10;;;16.60;96.40;;;17.42;62.27;98580.75;5194853;28;20225;-79
2022/08/10 02:14:46;;;;;;;3.30;3.10;;;16.60;96.50;;;17.43;61.70;98581.66;5199884;28;20327;-78
2022/08/10 02:17:27;;;;;;;3.75;3.53;;;16.60;96.60;;;17.53;61.93;98582.09;5200686;28;20291;-79
2022/08/10 02:20:26;;;;;;;3.63;3.33;;;16.60;96.60;;;17.51;61.60;98581.16;5195598;28;20253;-78
2022/08/10 02:23:08;;;;;;;3.83;3.63;;;16.60;96.40;;;17.45;62.05;98586.06;5192766;28;20226;-79
2022/08/10 02:25:43;;;;;;;4.10;3.90;;;16.50;96.70;;;17.45;62.17;98583.47;5201358;28;20202;-79
2022/08/10 02:28:20;;;;;;;4.05;3.75;;;16.60;96.90;;;17.41;62.85;98580.72;5196496;28;20226;-79
2022/08/10 02:31:07;;;;;;;3.85;3.65;;;16.50;97.80;;;17.39;63.27;98585.81;5199933;28;20221;-78
2022/08/10 02:33:47;;;;;;;3.63;3.40;;;16.50;97.70;;;17.39;63.44;98579.75;5198830;28;20289;-79
2022/08/10 02:36:35;;;;;;;4.32;3.92;;;16.50;97.60;;;17.35;63.33;98578.75;5203302;28;20202;-79
2022/08/10 02:39:09;;;;;;;3.60;3.40;;;16.40;97.90;;;17.36;62.97;98584.81;5196134;28;20222;-79
2022/08/10 02:41:50;;;;;;;3.60;3.40;;;16.40;97.80;;;17.28;63.23;98582.78;5196084;28;20217;-79
2022/08/10 02:44:51;;;;;;;3.92;3.67;;;16.40;97.60;;;17.25;63.80;98584.34;5206063;28;20225;-79
2022/08/10 02:47:49;;;;;;;4.28;3.97;;;16.30;98.30;;;17.16;64.26;98584.84;5202658;28;20332;-79
2022/08/10 02:50:29;;;;;;;4.00;3.70;;;16.20;98.50;;;17.14;64.34;98577.81;5200630;28;20218;-79
2022/08/10 02:53:11;;;;;;;4.30;4.00;;;16.20;98.70;;;17.09;64.80;98575.94;5198946;28;20252;-79
2022/08/10 02:56:11;;;;;;;4.13;3.70;;;16.10;99.10;;;17.11;64.21;98579.50;5198582;28;20202;-79
2022/08/10 02:58:46;;;;;;;4.35;4.05;;;16.10;98.80;;;16.91;65.87;98569.97;5203231;28;20279;-79
2022/08/10 03:01:25;;;;;;;4.10;3.90;;;15.90;99.60;;;16.74;65.75;98573.47;5194065;28;20190;-79
2022/08/10 03:04:02;;;;;;;4.13;3.92;;;15.80;99.80;;;16.70;65.94;98569.00;5197046;28;20233;-78
2022/08/10 03:06:41;;;;;;;4.82;4.53;;;15.70;99.90;;;16.70;66.05;98575.03;5201099;28;20267;-79
2022/08/10 03:09:19;;;;;;;4.25;4.00;;;15.80;99.90;;;16.67;66.18;98569.75;5188514;28;22108;-79
2022/08/10 03:11:54;;;;;;;4.22;3.92;;;15.80;99.90;;;16.69;66.80;98573.28;5189850;28;20272;-79
2022/08/10 03:14:49;;;;;;;4.85;4.47;;;15.80;99.90;;;16.71;66.34;98570.75;5204297;28;20220;-79
2022/08/10 03:17:24;;;;;;;4.22;4.03;;;15.70;99.90;;;16.59;66.76;98571.09;5199012;28;20597;-79
2022/08/10 03:19:58;;;;;;;4.20;4.00;;;15.60;99.90;;;16.62;66.49;98564.38;5200610;28;20279;-79
2022/08/10 03:22:54;;;;;;;4.55;4.25;;;15.60;99.90;;;16.56;67.08;98571.84;5194911;28;20229;-79
2022/08/10 03:25:29;;;;;;;4.47;4.15;;;15.60;99.90;;;16.51;67.27;98578.53;5194851;28;20206;-79
2022/08/10 03:28:03;;;;;;;4.47;4.18;;;15.60;99.90;;;16.51;66.93;98577.59;5198300;28;20209;-79
2022/08/10 03:30:37;;;;;;;4.65;4.30;;;15.60;99.90;;;16.43;67.26;98570.41;5196869;28;20745;-79
2022/08/10 03:33:11;;;;;;;4.32;4.07;;;15.50;99.90;;;16.43;67.01;98575.59;5196585;28;20238;-79
2022/08/10 03:35:44;;;;;;;4.25;3.95;;;15.50;99.90;;;16.38;67.04;98578.78;5202459;28;20210;-79
2022/08/10 03:38:39;;;;;;;4.65;4.35;;;15.50;99.90;;;16.39;66.78;98578.81;5197392;28;20289;-79
2022/08/10 03:41:16;;;;;;;70.97;65.00;;;15.50;99.90;;;16.43;67.38;98580.75;5196497;28;20206;-79
2022/08/10 03:43:53;;;;;;;44.47;41.08;;;15.50;99.90;;;16.40;67.40;98578.03;5201164;28;20222;-79
2022/08/10 03:46:28;;;;;;;28.05;26.17;;;15.50;99.90;;;16.39;67.41;98580.53;5195619;28;20307;-79
2022/08/10 03:49:04;;;;;;;20.85;19.30;;;15.40;99.90;;;16.35;68.10;98570.88;5199454;28;20194;-78
2022/08/10 03:51:37;;;;;;;13.02;12.02;;;15.40;99.90;;;16.31;68.07;98576.69;5198376;28;20198;-79
2022/08/10 03:54:11;;;;;;;14.05;12.98;;;15.40;99.90;;;16.25;68.06;98579.88;5196491;28;20241;-79
2022/08/10 03:56:46;;;;;;;7.20;6.80;;;15.40;99.90;;;16.26;67.87;98580.78;5199724;28;20209;-79
2022/08/10 03:59:20;;;;;;;5.20;4.90;;;15.40;99.90;;;16.25;67.69;98581.59;5197564;28;20253;-79
2022/08/10 04:01:53;;;;;;;4.68;4.28;;;15.30;99.90;;;16.21;68.00;98578.88;5192897;28;20254;-80
2022/08/10 04:04:47;;;;;;;4.85;4.47;;;15.20;99.90;;;16.16;68.59;98585.50;5200263;28;20244;-79
2022/08/10 04:07:20;;;;;;;4.78;4.50;;;15.20;99.90;;;16.13;68.56;98585.34;5203621;28;20253;-80
2022/08/10 04:09:53;;;;;;;5.07;4.78;;;15.20;99.90;;;16.10;68.77;98587.78;5198052;28;20202;-77
2022/08/10 04:12:32;;;;;;;5.28;4.90;;;15.20;99.90;;;16.14;68.20;98587.16;5199597;28;20217;-80
2022/08/10 04:15:06;;;;;;;4.07;3.88;;;15.20;99.90;;;16.16;68.08;98603.56;5200869;28;20230;-79
2022/08/10 04:17:40;;;;;;;4.38;4.07;;;15.10;99.90;;;15.95;68.92;98605.13;5192565;28;20252;-80
2022/08/10 04:20:38;;;;;;;4.80;4.60;;;15.00;99.90;;;15.95;68.66;98602.56;5199390;28;20240;-79
2022/08/10 04:23:17;;;;;;;4.78;4.57;;;15.00;99.90;;;15.96;68.65;98601.72;5194483;28;20223;-79
2022/08/10 04:25:52;;;;;;;4.65;4.35;;;15.00;99.90;;;15.88;69.58;98609.13;5199656;28;20198;-79
2022/08/10 04:28:27;;;;;;;5.38;4.93;;;14.90;99.90;;;15.87;69.54;98598.72;5192310;28;20199;-79
2022/08/10 04:31:03;;;;;;;5.00;4.70;;;14.90;99.90;;;15.82;69.34;98605.34;5198671;28;20497;-79
2022/08/10 04:33:40;;;;;;;4.57;4.38;;;14.90;99.90;;;15.85;69.36;98597.75;5198651;28;20227;-79
2022/08/10 04:36:15;;;;;;;5.68;5.28;;;14.90;99.90;;;15.87;70.34;98609.03;5192915;28;20234;-79
2022/08/10 04:38:50;;;;;;;5.00;4.60;;;14.90;99.90;;;15.89;69.76;98607.41;5198292;28;20249;-79
2022/08/10 04:41:24;;;;;;;5.13;4.80;;;14.90;99.90;;;15.79;70.32;98607.78;5188044;28;20206;-78
2022/08/10 04:43:58;;;;;;;4.95;4.65;;;14.90;99.90;;;15.89;68.89;98610.00;5196823;28;20226;-79
2022/08/10 04:46:32;;;;;;;4.93;4.63;;;14.90;99.90;;;15.83;69.82;98610.59;5192774;28;20198;-79
2022/08/10 04:49:25;;;;;;;5.40;4.97;;;14.80;99.90;;;15.81;69.59;98612.19;5193244;28;20201;-79
2022/08/10 04:52:18;;;;;;;5.10;4.80;;;14.80;99.90;;;15.81;69.77;98608.75;5198016;28;20270;-79
2022/08/10 04:54:51;;;;;;;5.28;4.97;;;14.90;99.90;;;15.87;69.86;98606.44;5198563;28;20665;-79
2022/08/10 04:57:24;;;;;;;5.40;5.00;;;15.00;99.90;;;15.89;69.45;98615.16;5192562;28;20242;-79
2022/08/10 04:59:59;;;;;;;5.13;4.78;;;15.10;99.90;;;15.99;69.49;98614.75;5191788;28;20951;-79
2022/08/10 05:02:32;;;;;;;5.25;4.95;;;15.10;99.90;;;16.10;69.23;98620.44;5192621;28;20199;-79
2022/08/10 05:05:07;;;;;;;5.13;4.72;;;15.30;99.90;;;16.21;69.45;98620.13;5198012;28;20611;-79
2022/08/10 05:07:40;;;;;;;5.07;4.78;;;15.40;99.90;;;16.28;69.14;98620.41;5197122;28;20233;-79
2022/08/10 05:10:28;;;;;;;5.25;4.75;;;15.40;99.90;;;16.39;68.07;98620.09;5188486;28;20195;-78
2022/08/10 05:13:01;;;;;;;5.25;4.85;;;15.50;99.90;;;16.32;68.35;98618.06;5196493;28;20225;-78
2022/08/10 05:15:36;;;;;;;5.32;4.93;;;15.40;99.90;;;16.43;67.54;98616.00;5194797;28;20199;-79
2022/08/10 05:18:09;;;;;;;5.47;4.95;;;15.50;99.90;;;16.47;68.10;98617.00;5194232;28;20198;-78
2022/08/10 05:20:43;;;;;;;5.00;4.60;;;15.50;99.90;;;16.58;67.61;98621.84;5191491;28;20313;-78
2022/08/10 05:23:22;;;;;;;5.45;5.10;;;15.70;99.90;;;16.62;67.58;98615.13;5190435;28;20237;-79
2022/08/10 05:25:55;;;;;;;5.22;4.72;;;15.80;99.90;;;16.94;66.36;98611.44;5194381;28;20194;-81
2022/08/10 05:28:28;;;;;;;4.93;4.53;;;16.10;99.90;;;17.49;64.87;98608.66;5192077;28;20198;-80
2022/08/10 05:31:08;;;;;;;4.65;4.25;;;16.40;99.90;;;18.20;62.68;98612.41;5186438;28;20202;-79
2022/08/10 05:33:46;;;;;;;4.38;4.18;;;17.00;99.70;;;18.95;60.70;98605.75;5190762;28;20215;-80
2022/08/10 05:36:20;;;;;;;4.55;4.13;;;17.80;97.80;;;19.71;57.82;98608.38;5192476;28;20210;-80
2022/08/10 05:38:54;;;;;;;4.90;4.60;;;18.70;95.50;;;20.37;56.30;98604.41;5193753;28;20195;-81
2022/08/10 05:41:28;;;;;;;4.43;4.13;;;19.20;94.50;;;20.96;54.38;98609.63;5191161;28;20211;-80
2022/08/10 05:44:02;;;;;;;3.83;3.53;;;19.80;93.00;;;21.47;51.25;98599.78;5198213;28;20249;-81
2022/08/10 05:46:36;;;;;;;3.40;3.20;;;20.30;90.90;;;22.08;49.24;98595.19;5196487;28;20687;-81
2022/08/10 05:49:10;;;;;;;3.92;3.63;;;21.00;86.90;;;22.70;47.25;98597.47;5196434;28;20205;-79
2022/08/10 05:51:44;;;;;;;3.50;3.17;;;21.50;85.80;;;23.27;46.35;98593.41;5190122;28;20199;-77
2022/08/10 05:54:17;;;;;;;3.50;3.30;;;22.00;82.90;;;23.55;44.09;98597.34;5184012;28;20226;-81
2022/08/10 05:56:50;;;;;;;3.15;2.95;;;22.50;79.70;;;23.92;43.68;98603.22;5192148;28;20210;-79
2022/08/10 05:59:33;;;;;;;3.78;3.47;;;22.50;79.20;;;23.80;43.29;98604.78;5186372;28;20275;-79
2022/08/10 06:02:35;;;;;;;3.50;3.20;;;22.30;79.20;;;24.47;41.45;98601.47;5188087;28;20258;-79
2022/08/10 06:05:10;;;;;;;3.08;2.80;;;22.70;78.10;;;24.68;41.17;98598.25;5192656;28;20233;-78
2022/08/10 06:07:49;;;;;;;3.40;3.10;;;22.80;77.50;;;25.09;40.82;98606.59;5195342;28;20198;-77
2022/08/10 06:10:23;;;;;;;4.13;2.95;;;23.20;76.40;;;25.04;40.66;98591.69;5183921;28;20253;-78
2022/08/10 06:16:10;;;;;;;3.00;2.80;;;23.20;76.10;;;25.46;40.06;98596.53;5190459;28;20670;-79
2022/08/10 06:18:45;;;;;;;3.10;2.90;;;23.20;76.80;;;25.77;39.04;98607.31;5188920;28;20206;-79
2022/08/10 06:21:20;;;;;;;3.20;2.80;;;23.20;75.60;;;25.89;39.17;98604.81;5193611;28;20662;-79
2022/08/10 06:23:54;;;;;;;3.00;2.80;;;23.40;75.50;;;26.31;38.03;98605.97;5197492;28;20283;-80
2022/08/10 06:26:27;;;;;;;3.28;2.97;;;23.70;74.90;;;26.41;37.49;98607.81;5193075;28;20228;-79
2022/08/10 06:29:09;;;;;;;3.60;3.22;;;23.90;73.60;;;26.83;37.63;98606.28;5193585;28;20238;-81
2022/08/10 06:31:47;;;;;;;3.33;2.63;;;24.10;73.80;;;27.14;36.72;98603.78;5190190;28;20226;-79
2022/08/10 06:34:29;;;;;;;3.17;2.88;;;24.40;72.80;;;27.40;36.07;98607.34;5187728;28;20213;-80
2022/08/10 06:37:06;;;;;;;4.00;2.53;;;24.70;71.60;;;27.68;35.59;98603.91;5188838;28;20250;-81
2022/08/10 06:39:39;;;;;;;4.15;2.92;;;25.10;71.10;;;27.65;35.20;98601.28;5199674;28;20255;-81
2022/08/10 06:42:16;;;;;;;2.80;2.42;;;25.10;69.90;;;27.95;34.81;98601.28;5194016;28;20206;-80
2022/08/10 06:44:58;;;;;;;3.13;2.45;;;25.30;69.60;;;28.23;34.45;98602.13;5188590;28;20214;-81
2022/08/10 06:47:39;;;;;;;3.70;2.45;;;25.80;68.70;;;28.72;33.96;98599.41;5189744;28;20194;-81
2022/08/10 06:50:18;;;;;;;3.25;2.40;;;26.50;66.50;;;28.72;33.77;98598.53;5190600;28;20194;-80
2022/08/10 06:53:16;;;;;;;2.42;2.20;;;26.30;66.30;;;29.01;32.95;98598.41;5186060;28;20232;-81
2022/08/10 06:55:53;;;;;;;3.78;2.53;;;26.60;66.10;;;29.11;32.73;98601.91;5195697;28;20497;-81
2022/08/10 06:58:36;;;;;;;4.40;2.33;;;26.60;65.00;;;29.35;32.26;98606.16;5191196;28;20221;-80
2022/08/10 07:01:16;;;;;;;3.13;2.20;;;26.80;64.90;;;29.55;31.78;98601.63;5187926;28;20689;-80
2022/08/10 07:03:58;;;;;;;2.40;2.20;;;27.10;64.00;;;29.39;32.36;98602.63;5192584;28;20278;-81
2022/08/10 07:06:36;;;;;;;2.42;2.22;;;27.10;64.30;;;29.33;32.15;98594.75;5189013;28;20233;-82
2022/08/10 07:09:11;;;;;;;2.83;2.22;;;27.30;62.60;;;29.69;31.86;98605.97;5191761;28;20234;-82
2022/08/10 07:11:49;;;;;;;2.47;2.17;;;27.70;63.00;;;29.90;30.60;98583.81;5186632;28;20212;-82
2022/08/10 07:14:25;;;;;;;2.25;2.05;;;27.90;60.00;;;30.25;30.54;98592.31;5185110;28;20260;-81
2022/08/10 07:16:59;;;;;;;2.45;2.25;;;28.10;60.40;;;30.26;30.18;98582.63;5187299;28;20210;-80
2022/08/10 07:19:33;;;;;;;2.17;1.90;;;28.30;59.70;;;30.50;29.83;98587.66;5193008;28;20237;-81
2022/08/10 07:22:27;;;;;;;2.10;1.90;;;28.50;59.20;;;30.81;28.60;98597.84;5188242;28;20229;-81
2022/08/10 07:25:24;;;;;;;2.17;1.98;;;29.10;57.60;;;31.07;28.61;98594.00;5187130;28;20209;-80
2022/08/10 07:27:59;;;;;;;2.03;1.80;;;29.20;57.80;;;30.01;29.86;98592.50;5189828;28;20202;-81
2022/08/10 07:30:40;;;;;;;2.22;1.90;;;28.40;58.20;;;30.15;30.29;98585.31;5200569;28;20623;-80
2022/08/10 07:33:17;;;;;;;3.72;1.98;;;28.00;59.40;;;30.48;29.27;98576.22;5198903;28;20210;-80
2022/08/10 07:35:51;;;;;;;3.08;2.28;;;28.40;58.60;;;30.63;29.03;98582.22;5197440;28;20711;-82
2022/08/10 07:38:29;;;;;;;2.40;2.00;;;28.30;58.50;;;30.80;29.02;98585.56;5199220;28;20248;-82
2022/08/10 07:41:05;;;;;;;2.00;1.90;;;28.50;58.50;;;31.53;28.05;98573.09;5196205;28;20260;-81
2022/08/10 07:43:40;;;;;;;2.05;1.95;;;28.90;58.40;;;31.73;27.24;98577.19;5195325;28;20256;-81
2022/08/10 07:46:15;;;;;;;2.22;1.90;;;28.90;58.20;;;32.47;26.22;98576.78;5196245;28;20202;-81
2022/08/10 07:48:54;;;;;;;3.28;2.20;;;29.50;56.80;;;32.02;27.16;98577.59;5198038;28;20237;-81
2022/08/10 07:51:31;;;;;;;3.25;1.90;;;29.30;56.90;;;30.89;27.28;98574.88;5200386;28;20206;-81
2022/08/10 07:54:07;;;;;;;2.58;1.83;;;28.70;56.00;;;31.48;26.57;98582.88;5210261;28;20236;-81
2022/08/10 07:56:41;;;;;;;2.75;2.10;;;29.10;55.80;;;31.46;26.90;98582.03;5208465;28;20201;-79
2022/08/10 07:59:29;;;;;;;3.05;1.90;;;29.10;56.00;;;30.92;27.36;98580.09;5209246;28;20259;-81
2022/08/10 08:02:05;;;;;;;3.42;1.80;;;28.90;55.90;;;30.44;27.87;98569.22;5198753;28;20222;-81
2022/08/10 08:04:40;;;;;;;3.08;2.13;;;28.90;55.60;;;30.38;28.51;98571.94;5199427;28;20272;-81
2022/08/10 08:07:14;;;;;;;4.18;1.80;;;29.20;55.30;;;30.16;28.30;98565.09;5204796;28;20284;-81
2022/08/10 08:09:56;;;;;;;2.38;1.90;;;28.90;55.80;;;30.22;29.22;98560.69;5197517;28;20212;-81
2022/08/10 08:12:34;;;;;;;3.40;2.10;;;29.10;56.10;;;29.97;28.65;98567.94;5198421;28;20260;-81
2022/08/10 08:15:14;;;;;;;2.85;2.00;;;28.90;55.40;;;30.03;28.72;98578.41;5208981;28;20266;-81
2022/08/10 08:18:09;;;;;;;2.38;1.80;;;28.80;55.60;;;30.19;28.41;98570.34;5200048;28;20212;-81
2022/08/10 08:20:44;;;;;;;2.75;2.00;;;29.00;55.70;;;30.57;28.68;98572.59;5213441;28;20315;-81
2022/08/10 08:23:19;;;;;;;2.20;1.77;;;29.60;54.80;;;30.51;28.61;98568.28;5204874;28;20235;-82
2022/08/10 08:26:16;;;;;;;2.28;2.00;;;29.70;55.00;;;30.31;28.71;98559.72;5190487;28;20212;-81
2022/08/10 08:28:51;;;;;;;1.88;1.65;;;29.50;54.90;;;30.22;28.40;98565.97;5203960;28;20607;-81
2022/08/10 08:31:25;;;;;;;2.20;1.70;;;29.60;54.20;;;29.63;28.99;98585.78;5202336;28;20206;-80
2022/08/10 08:33:59;;;;;;;2.38;1.85;;;29.00;54.40;;;29.32;28.75;98582.47;5201822;28;20225;-80
2022/08/10 08:36:33;;;;;;;1.83;1.73;;;28.60;54.70;;;28.56;28.46;98594.19;5198658;28;20233;-81
2022/08/10 08:39:07;;;;;;;2.10;1.90;;;27.90;54.10;;;28.88;28.11;98573.03;5197805;28;20225;-80
2022/08/10 08:42:09;;;;;;;2.90;1.92;;;28.30;53.90;;;29.33;28.50;98571.03;5196953;28;20226;-81
2022/08/10 08:45:00;;;;;;;3.17;1.88;;;28.90;54.30;;;29.00;29.11;98580.88;5196869;28;20222;-82
2022/08/10 08:48:00;;;;;;;2.08;1.88;;;28.90;53.60;;;28.87;29.41;98564.28;5204079;28;20201;-81
2022/08/10 08:50:57;;;;;;;2.72;2.03;;;28.40;54.50;;;29.32;28.28;98585.97;5193422;28;20259;-81
2022/08/10 08:53:50;;;;;;;1.95;1.83;;;28.90;53.70;;;29.46;27.68;98570.06;5192603;28;20354;-82
2022/08/10 08:56:42;;;;;;;2.05;1.85;;;29.10;53.20;;;29.47;28.16;98577.06;5190201;28;20240;-81
2022/08/10 08:59:42;;;;;;;2.10;1.80;;;29.00;53.20;;;29.23;28.48;98564.09;5205090;28;20190;-81
2022/08/10 09:02:34;;;;;;;2.55;1.95;;;28.70;53.30;;;29.39;28.04;98571.03;5197969;28;20229;-82
2022/08/10 09:05:26;;;;;;;1.80;1.70;;;29.00;53.30;;;29.40;27.88;98575.38;5202198;28;20197;-82
2022/08/10 09:08:59;;;;;;;3.08;1.63;;;28.90;53.00;;;28.94;27.00;98567.75;5198191;28;20256;-81
2022/08/10 09:11:49;;;;;;;3.22;2.00;;;28.80;51.90;;;28.93;27.82;98558.06;5157433;28;20195;-80
2022/08/10 09:14:31;;;;;;;2.42;1.70;;;28.50;53.20;;;29.36;27.16;98560.47;5202121;28;20240;-82
2022/08/10 09:17:16;;;;;;;1.90;1.80;;;29.00;51.90;;;29.39;26.65;98558.72;5208220;28;20437;-82
2022/08/10 09:19:59;;;;;;;3.15;1.77;;;29.00;51.80;;;29.23;27.63;98569.38;5203896;28;20218;-82
2022/08/10 09:22:40;;;;;;;1.83;1.48;;;29.00;52.00;;;29.40;27.94;98562.22;5215550;28;20221;-81
2022/08/10 09:25:18;;;;;;;2.67;2.00;;;28.90;52.70;;;29.67;26.82;98547.09;5187254;28;20582;-81
2022/08/10 09:28:03;;;;;;;3.72;1.80;;;29.30;52.10;;;29.50;28.08;98578.81;5191890;28;20205;-81
2022/08/10 09:30:47;;;;;;;4.80;2.17;;;29.10;52.80;;;28.81;29.07;98568.66;5203195;28;20221;-83
2022/08/10 09:33:52;;;;;;;2.45;1.80;;;28.40;53.70;;;28.91;28.79;98566.00;5186196;28;20578;-80
2022/08/10 09:36:57;;;;;;;3.10;1.90;;;28.50;53.80;;;28.63;29.12;98553.84;5198629;28;20223;-81
2022/08/10 09:39:41;;;;;;;2.20;2.00;;;28.10;54.10;;;28.62;29.14;98565.25;5192696;28;20194;-81
2022/08/10 09:42:46;;;;;;;2.60;2.00;;;28.20;53.40;;;28.81;28.17;98540.59;5190510;28;20541;-81
2022/08/10 09:45:55;;;;;;;1.70;1.60;;;28.60;52.40;;;28.75;28.57;98551.16;5192115;28;20209;-81
2022/08/10 09:48:45;;;;;;;1.75;1.65;;;28.40;53.00;;;28.78;27.00;98545.00;5193891;28;20199;-82
2022/08/10 09:51:30;;;;;;;2.05;1.85;;;28.50;51.20;;;28.74;26.70;98560.81;5196401;28;20703;-80
2022/08/10 09:54:48;;;;;;;1.80;1.70;;;28.60;50.30;;;28.29;26.75;98546.91;5189500;28;20225;-81
2022/08/10 09:57:32;;;;;;;1.98;1.75;;;28.10;50.50;;;28.62;26.15;98550.34;5196057;28;20210;-81
2022/08/10 10:00:23;;;;;;;2.30;1.85;;;28.40;50.20;;;29.01;25.09;98556.28;5196019;28;20202;-81
2022/08/10 10:03:14;;;;;;;1.85;1.70;;;28.90;48.70;;;28.76;24.49;98568.72;5191602;28;20221;-79
2022/08/10 10:06:03;;;;;;;2.35;1.83;;;28.60;48.30;;;28.57;26.39;98541.59;5192378;28;20657;-80
2022/08/10 10:08:47;;;;;;;3.60;2.20;;;28.30;50.20;;;28.25;27.15;98546.94;5191082;28;20202;-81
2022/08/10 10:11:43;;;;;;;5.72;2.05;;;28.10;50.90;;;28.44;26.67;98529.34;5194230;28;20701;-81
2022/08/10 10:14:30;;;;;;;1.70;1.58;;;28.10;50.70;;;29.06;26.28;98546.63;5194684;28;20712;-81
2022/08/10 10:17:13;;;;;;;2.53;1.83;;;28.80;50.60;;;29.25;25.03;98541.25;5202997;28;20198;-81
2022/08/10 10:20:04;;;;;;;3.15;1.77;;;29.00;49.00;;;28.89;25.44;98549.31;5196479;28;20236;-80
2022/08/10 10:22:50;;;;;;;1.90;1.77;;;28.70;49.00;;;28.89;25.98;98540.56;5212046;28;20221;-80
2022/08/10 10:25:32;;;;;;;3.30;1.88;;;28.60;49.20;;;28.78;25.75;98539.72;5191826;28;20186;-81
2022/08/10 10:28:37;;;;;;;3.67;1.98;;;28.50;49.90;;;29.12;26.50;98538.69;5194096;28;20301;-80
2022/08/10 10:31:36;;;;;;;1.90;1.52;;;28.70;51.20;;;29.25;25.82;98539.50;5178850;28;20202;-81
2022/08/10 10:34:16;;;;;;;1.95;1.80;;;28.90;50.20;;;29.02;27.06;98534.34;5200979;28;20217;-81
2022/08/10 10:36:52;;;;;;;1.77;1.60;;;28.70;50.70;;;29.31;26.49;98528.03;5192258;28;20202;-81
2022/08/10 10:39:26;;;;;;;1.75;1.60;;;29.00;51.00;;;29.48;26.62;98523.53;5192828;28;20198;-81
2022/08/10 10:42:13;;;;;;;2.17;1.90;;;29.10;50.90;;;29.05;27.05;98530.84;5197037;28;20284;-80
2022/08/10 10:45:18;;;;;;;1.75;1.65;;;28.60;51.60;;;29.04;26.74;98523.81;5191349;28;20197;-80
2022/08/10 10:48:05;;;;;;;1.80;1.63;;;28.70;50.50;;;29.09;25.91;98528.19;5194982;28;20198;-80
2022/08/10 10:50:55;;;;;;;2.10;1.60;;;28.80;50.60;;;29.25;26.01;98509.66;5194502;28;20210;-81
2022/08/10 10:53:37;;;;;;;1.77;1.63;;;28.80;50.60;;;29.60;25.97;98497.06;5196051;28;20214;-81
2022/08/10 10:56:20;;;;;;;2.90;1.75;;;29.10;50.20;;;29.47;26.49;98516.47;5196329;28;20657;-81
2022/08/10 10:59:03;;;;;;;2.92;1.63;;;29.30;50.30;;;29.45;25.48;98534.09;5200532;28;20264;-81
2022/08/10 11:02:09;;;;;;;3.15;2.00;;;29.20;49.40;;;29.09;26.42;98525.53;5201232;28;20245;-81
2022/08/10 11:04:48;;;;;;;3.35;1.88;;;28.60;50.10;;;29.05;26.01;98523.81;5210196;28;20245;-81
2022/08/10 11:07:36;;;;;;;2.00;1.83;;;28.70;50.10;;;28.55;26.73;98517.03;5201069;28;20206;-81
2022/08/10 11:10:15;;;;;;;1.90;1.80;;;28.20;50.20;;;28.40;26.46;98511.81;5205924;28;20198;-83
2022/08/10 11:13:21;;;;;;;2.70;2.10;;;28.00;50.20;;;28.53;26.09;98513.56;5208995;28;20244;-80
2022/08/10 11:16:20;;;;;;;2.47;1.90;;;28.20;49.90;;;28.30;26.24;98514.47;5194837;28;20289;-80
2022/08/10 11:19:06;;;;;;;1.67;1.55;;;28.00;49.90;;;28.54;26.41;98543.38;5200907;28;20205;-81
2022/08/10 11:21:55;;;;;;;2.60;1.88;;;28.10;50.50;;;28.43;26.93;98506.56;5196874;28;20224;-80
2022/08/10 11:24:39;;;;;;;3.33;2.05;;;28.00;50.60;;;28.19;26.60;98528.53;5208312;28;20225;-81